Time;durP1;ratioP1;P1;durP2;ratioP2;P2;SDS_P1;SDS_P2;PMS_P1;PMS_P2;Temp;Humidity;BMP_temperature;BMP_pressure;BME280_temperature;BME280_humidity;BME280_pressure;Samples;Min_cycle;Max_cycle;Signal;HPM_P1;HPM_P2
2023/05/20 00:00:19;;;;;;;3.58;2.60;;;11.90;99.90;;;;;;5071369;28;20020;-50
2023/05/20 00:02:44;;;;;;;3.53;2.40;;;11.90;99.90;;;;;;5071067;28;20031;-51
2023/05/20 00:05:10;;;;;;;2.40;2.20;;;11.80;99.90;;;;;;5071676;28;20032;-49
2023/05/20 00:07:35;;;;;;;2.30;1.92;;;11.80;99.90;;;;;;5070897;28;20036;-48
2023/05/20 00:10:01;;;;;;;3.75;2.30;;;11.80;99.90;;;;;;5070610;28;20058;-50
2023/05/20 00:12:26;;;;;;;5.00;2.00;;;11.80;99.90;;;;;;5070830;28;20028;-48
2023/05/20 00:14:52;;;;;;;2.00;1.77;;;11.70;99.90;;;;;;5061572;28;20024;-50
2023/05/20 00:17:18;;;;;;;4.07;2.63;;;11.70;99.90;;;;;;5064303;28;20017;-51
2023/05/20 00:19:43;;;;;;;4.03;2.30;;;11.70;99.90;;;;;;5069124;28;20020;-48
2023/05/20 00:22:09;;;;;;;3.13;2.45;;;11.70;99.90;;;;;;5070503;28;20071;-49
2023/05/20 00:24:35;;;;;;;6.10;2.35;;;11.70;99.90;;;;;;5070668;28;20029;-47
2023/05/20 00:27:01;;;;;;;3.35;2.65;;;11.70;99.90;;;;;;5071042;28;20548;-46
2023/05/20 00:29:27;;;;;;;3.60;2.05;;;11.60;99.90;;;;;;5070580;28;20024;-49
2023/05/20 00:31:53;;;;;;;5.03;2.53;;;11.60;99.90;;;;;;5073406;28;20489;-46
2023/05/20 00:34:19;;;;;;;4.57;2.00;;;11.50;99.90;;;;;;5075504;28;20024;-48
2023/05/20 00:36:45;;;;;;;3.45;2.85;;;11.50;99.90;;;;;;5070105;28;20477;-48
2023/05/20 00:39:11;;;;;;;3.45;2.20;;;11.50;99.90;;;;;;5069954;28;20147;-48
2023/05/20 00:41:37;;;;;;;3.85;2.55;;;11.40;99.90;;;;;;5078827;28;20021;-47
2023/05/20 00:44:03;;;;;;;3.63;2.35;;;11.40;99.90;;;;;;5070359;28;20028;-48
2023/05/20 00:46:28;;;;;;;2.42;1.85;;;11.40;99.90;;;;;;5078306;28;20028;-48
2023/05/20 00:48:54;;;;;;;3.75;1.88;;;11.30;99.90;;;;;;5087920;28;20153;-47
2023/05/20 00:51:20;;;;;;;3.85;2.40;;;11.20;99.90;;;;;;5090335;28;20016;-48
2023/05/20 00:53:46;;;;;;;8.23;2.63;;;11.20;99.90;;;;;;5090524;28;20481;-47
2023/05/20 00:56:12;;;;;;;5.05;2.30;;;11.20;99.90;;;;;;5090338;28;20021;-50
2023/05/20 00:58:38;;;;;;;6.18;2.17;;;11.20;99.90;;;;;;5090574;28;20099;-47
2023/05/20 01:01:05;;;;;;;2.45;1.95;;;11.20;99.90;;;;;;5090973;28;20049;-47
2023/05/20 01:03:32;;;;;;;2.20;1.85;;;11.20;99.90;;;;;;5088986;28;20022;-47
2023/05/20 01:05:57;;;;;;;3.85;2.03;;;11.20;99.90;;;;;;5069971;28;20112;-47
2023/05/20 01:08:24;;;;;;;3.40;2.35;;;11.20;99.90;;;;;;5085615;28;20099;-47
2023/05/20 01:11:05;;;;;;;5.68;2.38;;;11.20;99.90;;;;;;5088966;28;20115;-47
2023/05/20 01:13:45;;;;;;;3.97;2.28;;;11.30;99.90;;;;;;5088850;28;20032;-47
2023/05/20 01:16:12;;;;;;;;;;;11.30;99.90;;;;;;5084229;28;20023;-47
2023/05/20 01:18:40;;;;;;;3.05;2.42;;;11.30;99.90;;;;;;5089974;28;19962;-50
2023/05/20 01:21:08;;;;;;;4.97;2.38;;;11.30;99.90;;;;;;5090087;28;20020;-47
2023/05/20 01:23:41;;;;;;;6.63;2.72;;;11.30;99.90;;;;;;5089950;28;20024;-50
2023/05/20 01:26:07;;;;;;;4.85;2.55;;;11.30;99.90;;;;;;5090168;28;20024;-49
2023/05/20 01:28:38;;;;;;;3.47;2.67;;;11.30;99.90;;;;;;5089261;28;20095;-47
2023/05/20 01:31:04;;;;;;;;;;;11.30;99.90;;;;;;5090211;28;20016;-51
2023/05/20 01:33:32;;;;;;;2.97;2.28;;;11.30;99.90;;;;;;5089789;28;19930;-48
2023/05/20 01:35:58;;;;;;;4.25;2.13;;;11.30;99.90;;;;;;5089992;28;20028;-48
2023/05/20 01:38:24;;;;;;;2.72;2.10;;;11.40;99.90;;;;;;5088834;28;20020;-48
2023/05/20 01:40:52;;;;;;;3.72;2.30;;;11.40;99.90;;;;;;5089957;28;20103;-48
2023/05/20 01:43:18;;;;;;;3.95;2.20;;;11.40;99.90;;;;;;5104237;28;20061;-50
2023/05/20 01:45:44;;;;;;;2.92;2.40;;;11.40;99.90;;;;;;5091681;28;20412;-48
2023/05/20 01:48:11;;;;;;;2.78;1.90;;;11.40;99.90;;;;;;5075844;28;20028;-47
2023/05/20 01:50:37;;;;;;;4.00;2.35;;;11.40;99.90;;;;;;5074368;28;20043;-47
2023/05/20 01:53:03;;;;;;;2.00;1.60;;;11.40;99.90;;;;;;5069223;28;20094;-47
2023/05/20 01:55:29;;;;;;;2.60;1.90;;;11.40;99.90;;;;;;5068901;28;20012;-48
2023/05/20 01:57:55;;;;;;;3.28;2.58;;;11.40;99.90;;;;;;5069447;28;20028;-49
2023/05/20 02:00:20;;;;;;;3.38;2.15;;;11.40;99.90;;;;;;5055723;28;20052;-48
2023/05/20 02:02:46;;;;;;;3.05;1.92;;;11.40;99.90;;;;;;5068798;28;20039;-47
2023/05/20 02:05:12;;;;;;;4.10;2.33;;;11.30;99.90;;;;;;5069432;28;20032;-46
2023/05/20 02:07:37;;;;;;;4.10;2.20;;;11.30;99.90;;;;;;5069316;28;20545;-46
2023/05/20 02:10:04;;;;;;;4.50;2.30;;;11.30;99.90;;;;;;5081241;28;20021;-47
2023/05/20 02:12:29;;;;;;;2.40;2.00;;;11.20;99.90;;;;;;5063467;28;20029;-48
2023/05/20 02:14:55;;;;;;;3.03;2.40;;;11.20;99.90;;;;;;5077400;28;20109;-46
2023/05/20 02:17:20;;;;;;;3.05;2.10;;;11.20;99.90;;;;;;5069370;28;20477;-46
2023/05/20 02:19:46;;;;;;;2.80;1.90;;;11.10;99.90;;;;;;5068693;28;20099;-46
2023/05/20 02:22:13;;;;;;;2.78;2.10;;;11.00;99.90;;;;;;5068458;28;20027;-51
2023/05/20 02:24:38;;;;;;;9.25;1.95;;;11.00;99.90;;;;;;5076887;28;20034;-48
2023/05/20 02:27:05;;;;;;;4.78;2.28;;;10.90;99.90;;;;;;5069335;28;20437;-48
2023/05/20 02:29:31;;;;;;;3.97;2.20;;;10.90;99.90;;;;;;5068667;28;20432;-47
2023/05/20 02:31:57;;;;;;;4.95;2.10;;;10.90;99.90;;;;;;5067115;28;20032;-49
2023/05/20 02:34:24;;;;;;;3.42;2.00;;;10.80;99.90;;;;;;5068589;28;20121;-47
2023/05/20 02:36:50;;;;;;;5.30;2.65;;;10.70;99.90;;;;;;5068981;28;20452;-48
2023/05/20 02:39:16;;;;;;;6.03;2.92;;;10.70;99.90;;;;;;5068712;28;20013;-47
2023/05/20 02:41:41;;;;;;;5.20;2.30;;;10.70;99.90;;;;;;5079274;28;20509;-48
2023/05/20 02:44:09;;;;;;;3.63;2.25;;;10.60;99.90;;;;;;5084816;28;20040;-49
2023/05/20 02:46:35;;;;;;;9.90;2.70;;;10.60;99.90;;;;;;5076156;28;20100;-47
2023/05/20 02:49:00;;;;;;;5.18;2.20;;;10.60;99.90;;;;;;5073993;28;20134;-48
2023/05/20 02:51:26;;;;;;;4.55;2.13;;;10.40;99.90;;;;;;5077268;28;20029;-47
2023/05/20 02:53:52;;;;;;;4.10;2.20;;;10.40;99.90;;;;;;5072564;28;20023;-47
2023/05/20 02:56:20;;;;;;;4.47;2.30;;;10.40;99.90;;;;;;5062678;28;20017;-50
2023/05/20 02:58:46;;;;;;;3.22;2.40;;;10.30;99.90;;;;;;5072176;28;20020;-50
2023/05/20 03:01:12;;;;;;;2.88;2.30;;;10.30;99.90;;;;;;5072236;28;20036;-48
2023/05/20 03:03:39;;;;;;;3.10;1.85;;;10.20;99.90;;;;;;5072005;28;20472;-49
2023/05/20 03:06:05;;;;;;;3.22;2.00;;;10.20;99.90;;;;;;5064459;28;20096;-47
2023/05/20 03:08:33;;;;;;;3.22;2.10;;;10.20;99.90;;;;;;5072333;28;20056;-47
2023/05/20 03:10:59;;;;;;;3.13;2.33;;;10.10;99.90;;;;;;5071921;28;20024;-47
2023/05/20 03:13:24;;;;;;;4.00;2.50;;;10.10;99.90;;;;;;5065365;28;20086;-47
2023/05/20 03:15:50;;;;;;;4.78;2.78;;;10.10;99.90;;;;;;5070026;28;20224;-47
2023/05/20 03:18:16;;;;;;;3.90;2.15;;;10.10;99.90;;;;;;5079926;28;20517;-47
2023/05/20 03:20:41;;;;;;;5.95;2.40;;;10.10;99.90;;;;;;5071631;28;20055;-47
2023/05/20 03:23:07;;;;;;;4.03;1.98;;;10.10;99.90;;;;;;5071711;28;20178;-47
2023/05/20 03:25:33;;;;;;;3.53;2.20;;;10.10;99.90;;;;;;5064061;28;20029;-49
2023/05/20 03:27:58;;;;;;;4.65;2.40;;;10.00;99.90;;;;;;5070712;28;20112;-47
2023/05/20 03:30:25;;;;;;;4.22;2.22;;;10.00;99.90;;;;;;5070287;28;20025;-47
2023/05/20 03:32:51;;;;;;;2.40;1.95;;;10.00;99.90;;;;;;5071296;28;20103;-48
2023/05/20 03:35:17;;;;;;;2.65;2.13;;;9.90;99.90;;;;;;5071183;28;20037;-48
2023/05/20 03:37:43;;;;;;;2.72;2.30;;;9.80;99.90;;;;;;5071450;28;20028;-48
2023/05/20 03:40:09;;;;;;;2.95;2.17;;;9.80;99.90;;;;;;5071220;28;20032;-48
2023/05/20 03:42:38;;;;;;;6.32;2.30;;;9.80;99.90;;;;;;5069745;28;20522;-47
2023/05/20 03:45:05;;;;;;;4.35;2.30;;;9.70;99.90;;;;;;5071133;28;20504;-47
2023/05/20 03:47:31;;;;;;;4.00;2.78;;;9.70;99.90;;;;;;5079040;28;20236;-47
2023/05/20 03:49:56;;;;;;;3.30;2.50;;;9.80;99.90;;;;;;5091279;28;20498;-47
2023/05/20 03:52:22;;;;;;;3.30;2.30;;;9.80;99.90;;;;;;5090436;28;20023;-47
2023/05/20 03:54:47;;;;;;;3.78;2.40;;;9.80;99.90;;;;;;5092017;28;20397;-48
2023/05/20 03:57:13;;;;;;;5.18;2.28;;;9.80;99.90;;;;;;5098469;28;20020;-47
2023/05/20 03:59:39;;;;;;;3.25;2.30;;;9.80;99.90;;;;;;5091238;28;20036;-48
2023/05/20 04:02:05;;;;;;;4.25;2.60;;;9.80;99.90;;;;;;5094374;28;20068;-47
2023/05/20 04:04:31;;;;;;;3.88;2.53;;;9.80;99.90;;;;;;5111718;28;20472;-48
2023/05/20 04:06:59;;;;;;;3.80;2.40;;;9.80;99.90;;;;;;5100841;28;20028;-47
2023/05/20 04:09:25;;;;;;;3.75;2.80;;;9.80;99.90;;;;;;5104687;28;20323;-47
2023/05/20 04:11:50;;;;;;;3.28;2.33;;;9.90;99.90;;;;;;5093404;28;20026;-47
2023/05/20 04:14:16;;;;;;;4.10;3.15;;;9.90;99.90;;;;;;5094096;28;20043;-47
2023/05/20 04:16:42;;;;;;;3.25;2.83;;;9.90;99.90;;;;;;5093793;28;20043;-47
2023/05/20 04:19:07;;;;;;;3.78;2.30;;;9.90;99.90;;;;;;5090776;28;20288;-47
2023/05/20 04:21:33;;;;;;;4.65;2.70;;;10.00;99.90;;;;;;5090776;28;20107;-47
2023/05/20 04:23:59;;;;;;;6.68;2.53;;;10.00;99.90;;;;;;5090420;28;20498;-47
2023/05/20 04:26:24;;;;;;;3.63;2.72;;;10.00;99.90;;;;;;5090713;28;20039;-46
2023/05/20 04:28:50;;;;;;;3.42;2.80;;;10.00;99.90;;;;;;5099452;28;20035;-46
2023/05/20 04:31:15;;;;;;;4.53;2.85;;;10.10;99.90;;;;;;5089703;28;20035;-46
2023/05/20 04:33:42;;;;;;;3.63;2.60;;;10.10;99.90;;;;;;5092248;28;20020;-47
2023/05/20 04:36:10;;;;;;;3.38;2.60;;;10.20;99.90;;;;;;5089243;28;20070;-47
2023/05/20 04:38:37;;;;;;;5.10;3.13;;;10.20;99.90;;;;;;5090688;28;20085;-47
2023/05/20 04:41:03;;;;;;;7.28;3.17;;;10.30;99.90;;;;;;5094146;28;20032;-46
2023/05/20 04:43:29;;;;;;;4.18;2.67;;;10.30;99.90;;;;;;5092705;28;20061;-47
2023/05/20 04:45:55;;;;;;;6.43;2.83;;;10.30;99.90;;;;;;5094483;28;20035;-47
2023/05/20 04:48:21;;;;;;;3.70;2.70;;;10.40;99.90;;;;;;5074638;28;20099;-46
2023/05/20 04:50:48;;;;;;;5.10;3.00;;;10.40;99.90;;;;;;5051699;28;20163;-47
2023/05/20 04:53:17;;;;;;;4.05;2.40;;;10.50;99.90;;;;;;5069509;28;20042;-46
2023/05/20 04:55:44;;;;;;;3.03;2.40;;;10.50;99.90;;;;;;5057951;28;20473;-47
2023/05/20 04:58:14;;;;;;;5.65;2.55;;;10.60;99.90;;;;;;5070195;28;20016;-47
2023/05/20 05:00:45;;;;;;;6.93;2.90;;;10.70;99.90;;;;;;5069989;28;20187;-47
2023/05/20 05:03:11;;;;;;;5.68;2.38;;;10.70;99.90;;;;;;5069134;28;20398;-46
2023/05/20 05:05:38;;;;;;;3.80;2.75;;;10.80;99.90;;;;;;5072009;28;20352;-47
2023/05/20 05:08:04;;;;;;;6.10;2.55;;;10.80;99.90;;;;;;5050375;28;20024;-47
2023/05/20 05:10:30;;;;;;;3.33;2.83;;;10.80;99.90;;;;;;5051464;28;20115;-47
2023/05/20 05:12:56;;;;;;;3.33;2.38;;;10.90;99.90;;;;;;5070281;28;20108;-50
2023/05/20 05:15:22;;;;;;;5.15;3.05;;;10.90;99.90;;;;;;5070924;28;20104;-47
2023/05/20 05:17:48;;;;;;;4.15;2.45;;;11.00;99.90;;;;;;5069147;28;20021;-48
2023/05/20 05:20:14;;;;;;;5.22;2.72;;;11.10;99.90;;;;;;5069185;28;20099;-47
2023/05/20 05:22:40;;;;;;;4.53;2.75;;;11.10;99.90;;;;;;5070730;28;20108;-48
2023/05/20 05:25:07;;;;;;;4.55;2.95;;;11.10;99.90;;;;;;5069106;28;20498;-48
2023/05/20 05:27:34;;;;;;;3.72;2.42;;;11.20;99.90;;;;;;5055157;28;20107;-49
2023/05/20 05:29:59;;;;;;;2.53;2.08;;;11.30;99.90;;;;;;5051306;28;20478;-48
2023/05/20 05:32:25;;;;;;;4.88;3.10;;;11.40;99.90;;;;;;5068816;28;20032;-47
2023/05/20 05:34:50;;;;;;;5.60;3.40;;;11.40;99.90;;;;;;5068769;28;20028;-47
2023/05/20 05:37:16;;;;;;;5.40;3.47;;;11.50;99.90;;;;;;5070486;28;20032;-48
2023/05/20 05:39:41;;;;;;;6.45;3.05;;;11.60;99.90;;;;;;5069130;28;20494;-49
2023/05/20 05:42:07;;;;;;;4.30;3.15;;;11.70;99.90;;;;;;5073105;28;20036;-48
2023/05/20 05:44:32;;;;;;;5.13;3.40;;;11.70;99.90;;;;;;5068696;28;20025;-49
2023/05/20 05:46:58;;;;;;;5.03;3.83;;;11.80;99.90;;;;;;5071971;28;20472;-47
2023/05/20 05:49:23;;;;;;;5.57;3.65;;;11.90;99.90;;;;;;5089130;28;20024;-50
2023/05/20 05:51:50;;;;;;;7.32;4.10;;;11.90;99.90;;;;;;5090394;28;20444;-48
2023/05/20 05:54:15;;;;;;;8.23;3.75;;;11.90;99.90;;;;;;5089611;28;20024;-50
2023/05/20 05:56:41;;;;;;;8.23;4.00;;;12.00;99.90;;;;;;5088836;28;20020;-49
2023/05/20 05:59:06;;;;;;;7.40;4.15;;;12.10;99.90;;;;;;5088709;28;20489;-48
2023/05/20 06:01:32;;;;;;;10.10;4.95;;;12.20;99.90;;;;;;5090032;28;20028;-47
2023/05/20 06:03:58;;;;;;;6.78;4.30;;;12.20;99.90;;;;;;5089918;28;20427;-49
2023/05/20 06:06:23;;;;;;;7.38;4.55;;;12.20;99.90;;;;;;5088753;28;20017;-47
2023/05/20 06:08:49;;;;;;;10.10;4.85;;;12.30;99.90;;;;;;5088763;28;20118;-49
2023/05/20 06:11:15;;;;;;;9.18;5.00;;;12.30;99.90;;;;;;5087126;28;20049;-47
2023/05/20 06:13:40;;;;;;;8.00;4.90;;;12.30;99.90;;;;;;5087166;28;20016;-47
2023/05/20 06:16:06;;;;;;;12.50;6.25;;;12.40;99.90;;;;;;5092146;28;20428;-48
2023/05/20 06:18:31;;;;;;;8.85;6.35;;;12.40;99.90;;;;;;5091295;28;20481;-50
2023/05/20 06:20:57;;;;;;;10.02;6.30;;;12.50;99.90;;;;;;5093016;28;20103;-49
2023/05/20 06:23:23;;;;;;;9.88;6.53;;;12.60;99.90;;;;;;5093667;28;20062;-48
2023/05/20 06:25:49;;;;;;;11.48;6.05;;;12.60;99.90;;;;;;5092411;28;20024;-48
2023/05/20 06:28:15;;;;;;;12.82;6.57;;;12.70;99.90;;;;;;5096572;28;20104;-47
2023/05/20 06:30:41;;;;;;;11.70;6.13;;;12.80;99.90;;;;;;5092696;28;20035;-46
2023/05/20 06:33:06;;;;;;;12.98;5.80;;;12.90;99.90;;;;;;5091502;28;20020;-47
2023/05/20 06:35:35;;;;;;;11.23;6.65;;;13.00;99.90;;;;;;5093144;28;20020;-48
2023/05/20 06:38:01;;;;;;;9.60;7.10;;;13.10;99.90;;;;;;5102790;28;20011;-53
2023/05/20 06:40:27;;;;;;;9.85;7.15;;;13.20;99.90;;;;;;5112227;28;20440;-52
2023/05/20 06:42:53;;;;;;;11.52;7.70;;;13.30;99.90;;;;;;5111933;28;20469;-52
2023/05/20 06:45:19;;;;;;;10.93;7.00;;;13.40;99.90;;;;;;5111212;28;20019;-53
2023/05/20 06:47:46;;;;;;;9.27;6.68;;;13.50;99.90;;;;;;5101796;28;20032;-52
2023/05/20 06:50:12;;;;;;;9.90;6.30;;;13.60;99.90;;;;;;5093829;28;20019;-52
2023/05/20 06:52:37;;;;;;;8.23;6.82;;;13.80;99.90;;;;;;5112090;28;20016;-52
2023/05/20 06:55:03;;;;;;;10.25;6.38;;;13.90;99.90;;;;;;5112039;28;20077;-52
2023/05/20 06:57:29;;;;;;;10.38;6.38;;;13.90;99.90;;;;;;5112471;27;20502;-52
2023/05/20 06:59:54;;;;;;;7.65;6.30;;;14.00;99.90;;;;;;5112227;28;20032;-53
2023/05/20 07:02:21;;;;;;;8.02;5.57;;;14.10;99.90;;;;;;5111457;28;20023;-52
2023/05/20 07:04:46;;;;;;;8.70;5.55;;;14.30;99.90;;;;;;5112023;28;20034;-53
2023/05/20 07:07:12;;;;;;;8.98;6.25;;;14.40;99.90;;;;;;5110544;28;20020;-52
2023/05/20 07:09:37;;;;;;;10.70;6.63;;;14.60;99.90;;;;;;5111831;28;20050;-52
2023/05/20 07:12:03;;;;;;;8.55;5.45;;;14.70;99.90;;;;;;5111337;28;20311;-52
2023/05/20 07:14:29;;;;;;;7.85;5.50;;;14.80;99.90;;;;;;5111795;28;20027;-52
2023/05/20 07:16:54;;;;;;;9.50;5.65;;;15.00;99.90;;;;;;5108288;28;20034;-52
2023/05/20 07:19:20;;;;;;;12.00;5.03;;;15.10;99.90;;;;;;5089815;28;20022;-52
2023/05/20 07:21:45;;;;;;;8.75;5.93;;;15.30;99.90;;;;;;5098959;28;20024;-51
2023/05/20 07:24:11;;;;;;;8.82;5.78;;;15.50;99.90;;;;;;5111556;28;20060;-51
2023/05/20 07:26:36;;;;;;;8.73;6.00;;;15.60;99.90;;;;;;5110636;28;20472;-51
2023/05/20 07:29:05;;;;;;;7.50;5.53;;;15.60;99.90;;;;;;5111702;28;20053;-52
2023/05/20 07:31:31;;;;;;;6.45;5.18;;;15.70;99.90;;;;;;5111086;28;20094;-52
2023/05/20 07:33:56;;;;;;;9.50;5.03;;;15.80;99.90;;;;;;5111337;28;20028;-53
2023/05/20 07:36:22;;;;;;;9.80;5.43;;;15.70;99.90;;;;;;5111506;28;20469;-52
2023/05/20 07:38:47;;;;;;;7.53;4.78;;;15.70;99.90;;;;;;5111197;28;20028;-53
2023/05/20 07:41:13;;;;;;;12.50;4.97;;;15.60;99.90;;;;;;5110474;28;20027;-52
2023/05/20 07:43:39;;;;;;;8.02;4.65;;;15.40;99.90;;;;;;5109444;28;20035;-52
2023/05/20 07:46:05;;;;;;;8.82;4.72;;;15.30;99.90;;;;;;5109495;28;20048;-52
2023/05/20 07:48:30;;;;;;;8.18;4.38;;;15.40;99.90;;;;;;5092773;28;20114;-50
2023/05/20 07:50:58;;;;;;;9.25;4.30;;;15.50;99.90;;;;;;5089929;28;20130;-49
2023/05/20 07:53:24;;;;;;;13.00;5.15;;;15.70;99.90;;;;;;5109294;28;20042;-54
2023/05/20 07:55:49;;;;;;;5.90;4.68;;;15.70;99.90;;;;;;5109566;28;20481;-49
2023/05/20 07:58:15;;;;;;;6.00;4.50;;;15.70;99.90;;;;;;5111329;28;20020;-53
2023/05/20 08:00:41;;;;;;;6.22;4.32;;;15.70;99.90;;;;;;5111002;28;20035;-49
2023/05/20 08:03:06;;;;;;;10.15;4.20;;;15.90;99.90;;;;;;5110646;28;20031;-52
2023/05/20 08:05:35;;;;;;;6.35;4.50;;;16.00;99.90;;;;;;5110985;28;20030;-52
2023/05/20 08:08:00;;;;;;;8.32;5.22;;;15.90;99.90;;;;;;5110272;28;20077;-51
2023/05/20 08:10:26;;;;;;;6.50;4.00;;;16.10;99.90;;;;;;5104394;28;20036;-50
2023/05/20 08:12:52;;;;;;;9.45;3.58;;;16.40;99.90;;;;;;5110822;28;20019;-52
2023/05/20 08:15:17;;;;;;;5.85;3.78;;;16.70;99.90;;;;;;5102167;28;20522;-51
2023/05/20 08:17:43;;;;;;;7.55;3.67;;;17.10;99.70;;;;;;5100233;28;20099;-52
2023/05/20 08:20:11;;;;;;;7.43;3.40;;;17.30;99.10;;;;;;5092357;28;20034;-52
2023/05/20 08:22:37;;;;;;;8.52;3.63;;;17.60;99.40;;;;;;5110666;28;20015;-52
2023/05/20 08:25:03;;;;;;;5.80;4.20;;;17.90;99.30;;;;;;5110470;28;20030;-50
2023/05/20 08:27:28;;;;;;;5.72;4.40;;;18.20;98.10;;;;;;5097695;28;20031;-53
2023/05/20 08:29:54;;;;;;;5.63;4.00;;;18.20;96.60;;;;;;5093131;28;20034;-51
2023/05/20 08:32:19;;;;;;;6.88;4.38;;;18.40;96.90;;;;;;5109874;28;20043;-52
2023/05/20 08:34:47;;;;;;;6.93;4.70;;;18.70;95.90;;;;;;5110178;28;20015;-53
2023/05/20 08:37:13;;;;;;;5.72;4.40;;;18.80;94.80;;;;;;5110066;28;20054;-52
2023/05/20 08:39:39;;;;;;;7.00;5.15;;;18.70;95.40;;;;;;5110448;28;20073;-50
2023/05/20 08:42:06;;;;;;;9.32;4.93;;;18.30;95.30;;;;;;5108023;28;20510;-52
2023/05/20 08:44:33;;;;;;;8.10;4.90;;;18.20;95.70;;;;;;5109987;28;20020;-49
2023/05/20 08:46:58;;;;;;;7.35;4.70;;;18.20;96.30;;;;;;5106168;28;20024;-52
2023/05/20 08:49:24;;;;;;;9.45;5.00;;;18.10;96.80;;;;;;5088007;28;20012;-50
2023/05/20 08:51:50;;;;;;;6.68;4.68;;;17.80;96.70;;;;;;5105775;28;20076;-51
2023/05/20 08:54:15;;;;;;;7.68;5.00;;;17.60;97.20;;;;;;5108007;28;20315;-52
2023/05/20 08:56:42;;;;;;;11.35;5.40;;;17.50;96.70;;;;;;5096858;28;20476;-52
2023/05/20 08:59:09;;;;;;;8.30;5.25;;;17.30;96.90;;;;;;5091833;28;20031;-53
2023/05/20 09:01:44;;;;;;;8.07;4.68;;;17.10;97.70;;;;;;5095788;28;20516;-52
2023/05/20 09:04:10;;;;;;;6.22;5.05;;;17.20;97.80;;;;;;5109675;28;20028;-53
2023/05/20 09:06:45;;;;;;;8.68;5.40;;;17.20;98.20;;;;;;5109846;28;20042;-49
2023/05/20 09:09:15;;;;;;;11.05;6.18;;;17.00;99.10;;;;;;5109463;28;20051;-52
2023/05/20 09:11:41;;;;;;;7.10;5.47;;;17.00;98.70;;;;;;5104313;27;20020;-49
2023/05/20 09:14:07;;;;;;;7.22;5.35;;;17.10;99.10;;;;;;5108979;28;20337;-50
2023/05/20 09:16:33;;;;;;;10.65;5.47;;;17.10;98.60;;;;;;5109128;28;20103;-52
2023/05/20 09:18:59;;;;;;;9.45;6.50;;;17.00;98.80;;;;;;5089328;28;20327;-52
2023/05/20 09:21:28;;;;;;;10.30;6.10;;;17.00;99.50;;;;;;5098972;28;20028;-53
2023/05/20 09:23:57;;;;;;;12.15;6.88;;;16.90;99.00;;;;;;5105161;28;20059;-51
2023/05/20 09:26:27;;;;;;;10.18;5.93;;;17.00;98.80;;;;;;5103152;28;20384;-52
2023/05/20 09:28:58;;;;;;;9.10;5.40;;;17.10;98.80;;;;;;5105655;28;20024;-50
2023/05/20 09:31:29;;;;;;;9.68;6.35;;;17.30;98.90;;;;;;5108869;28;20053;-53
2023/05/20 09:33:55;;;;;;;12.23;6.70;;;17.50;98.30;;;;;;5109437;28;20107;-52
2023/05/20 09:36:22;;;;;;;9.68;6.28;;;17.50;98.00;;;;;;5109329;28;20516;-51
2023/05/20 09:38:52;;;;;;;12.13;5.95;;;17.50;98.70;;;;;;5107721;28;20058;-51
2023/05/20 09:41:22;;;;;;;9.80;5.40;;;17.30;98.40;;;;;;5103510;28;20045;-52
2023/05/20 09:43:49;;;;;;;10.30;6.15;;;17.30;98.20;;;;;;5099052;28;20035;-50
2023/05/20 09:46:15;;;;;;;11.05;6.10;;;17.20;98.30;;;;;;5104996;28;20019;-52
2023/05/20 09:48:42;;;;;;;11.20;6.45;;;17.20;98.70;;;;;;5085830;28;20036;-52
2023/05/20 09:51:08;;;;;;;9.43;6.50;;;17.30;98.90;;;;;;5086508;28;20032;-50
2023/05/20 09:53:34;;;;;;;9.95;6.18;;;17.30;98.80;;;;;;5092187;28;20103;-50
2023/05/20 09:56:00;;;;;;;10.60;6.25;;;17.40;98.80;;;;;;5108469;28;20030;-51
2023/05/20 09:58:27;;;;;;;12.73;6.10;;;17.40;98.60;;;;;;5108770;28;20028;-53
2023/05/20 10:00:53;;;;;;;10.25;5.93;;;17.30;98.60;;;;;;5107200;28;20035;-50
2023/05/20 10:03:21;;;;;;;10.40;5.63;;;17.20;98.80;;;;;;5106708;28;20473;-51
2023/05/20 10:06:05;;;;;;;9.30;6.25;;;17.10;98.80;;;;;;5095694;28;20051;-54
2023/05/20 10:08:51;;;;;;;13.68;6.00;;;17.10;99.20;;;;;;5108840;28;20074;-50
2023/05/20 10:11:41;;;;;;;7.43;5.95;;;17.00;99.20;;;;;;5088661;28;20050;-49
2023/05/20 10:14:36;;;;;;;8.45;5.80;;;16.90;99.30;;;;;;5097514;28;20096;-51
2023/05/20 10:17:23;;;;;;;10.95;5.93;;;16.70;99.30;;;;;;5073819;28;20034;-53
2023/05/20 10:19:49;;;;;;;10.18;4.90;;;16.70;99.90;;;;;;5088339;28;20490;-52
2023/05/20 10:22:28;;;;;;;7.50;5.10;;;16.60;99.90;;;;;;5107249;28;20385;-52
2023/05/20 10:24:59;;;;;;;8.32;5.85;;;16.70;99.90;;;;;;5109160;28;20483;-52
2023/05/20 10:27:25;;;;;;;11.43;6.00;;;16.80;99.90;;;;;;5108419;28;20452;-52
2023/05/20 10:29:53;;;;;;;11.05;6.65;;;17.00;99.40;;;;;;5108405;28;20024;-53
2023/05/20 10:32:31;;;;;;;11.98;6.75;;;17.10;99.20;;;;;;5107987;28;20477;-52
2023/05/20 10:35:04;;;;;;;14.15;7.78;;;17.10;99.10;;;;;;5095114;28;20028;-53
2023/05/20 10:37:32;;;;;;;8.55;5.45;;;17.20;99.30;;;;;;5093054;28;20042;-53
2023/05/20 10:40:11;;;;;;;9.00;6.28;;;17.40;98.90;;;;;;5108167;28;20016;-51
2023/05/20 10:42:37;;;;;;;7.57;4.72;;;17.50;98.80;;;;;;5093254;28;20123;-53
2023/05/20 10:45:03;;;;;;;9.63;5.57;;;17.50;98.70;;;;;;5089367;28;20457;-53
2023/05/20 10:47:30;;;;;;;6.85;5.00;;;17.60;98.40;;;;;;5086620;28;20043;-51
2023/05/20 10:49:56;;;;;;;9.57;6.35;;;17.60;97.80;;;;;;5086365;28;20051;-52
2023/05/20 10:52:23;;;;;;;15.38;7.03;;;17.50;99.00;;;;;;5095459;28;20020;-52
2023/05/20 10:54:59;;;;;;;7.65;5.57;;;17.40;98.80;;;;;;5088604;28;20016;-53
2023/05/20 10:57:27;;;;;;;8.75;6.00;;;17.40;99.00;;;;;;5098808;28;20027;-50
2023/05/20 10:59:53;;;;;;;9.25;6.28;;;17.40;98.80;;;;;;5108488;28;20117;-51
2023/05/20 11:02:25;;;;;;;9.00;5.70;;;17.40;99.30;;;;;;5110000;28;20020;-52
2023/05/20 11:04:51;;;;;;;7.72;5.53;;;17.30;99.10;;;;;;5111984;28;20549;-51
2023/05/20 11:07:28;;;;;;;11.68;5.25;;;17.40;99.60;;;;;;5111823;27;20057;-50
2023/05/20 11:09:57;;;;;;;9.30;5.47;;;17.60;98.70;;;;;;5111853;28;20048;-53
2023/05/20 11:12:24;;;;;;;8.63;5.75;;;17.70;98.60;;;;;;5096827;28;20015;-53
2023/05/20 11:14:50;;;;;;;11.23;6.60;;;17.90;98.70;;;;;;5106241;28;20177;-54
2023/05/20 11:17:17;;;;;;;11.90;6.60;;;18.10;98.30;;;;;;5103592;28;20521;-53
2023/05/20 11:19:43;;;;;;;16.58;6.50;;;18.20;98.00;;;;;;5090777;28;20166;-52
2023/05/20 11:22:09;;;;;;;10.73;6.18;;;18.30;98.70;;;;;;5108387;28;20115;-53
2023/05/20 11:24:35;;;;;;;11.93;7.53;;;18.20;98.00;;;;;;5111329;28;20016;-50
2023/05/20 11:27:01;;;;;;;12.25;6.45;;;18.00;97.90;;;;;;5111361;28;20030;-50
2023/05/20 11:29:27;;;;;;;14.70;8.07;;;18.00;97.80;;;;;;5094646;28;20422;-51
2023/05/20 11:31:54;;;;;;;12.48;6.32;;;18.00;98.30;;;;;;5108633;28;20166;-50
2023/05/20 11:34:23;;;;;;;9.10;5.85;;;18.00;98.10;;;;;;5110271;28;20031;-52
2023/05/20 11:36:56;;;;;;;9.55;5.30;;;18.10;98.20;;;;;;5110232;28;20026;-53
2023/05/20 11:39:21;;;;;;;13.38;5.70;;;17.90;98.40;;;;;;5111141;28;20024;-49
2023/05/20 11:41:47;;;;;;;8.00;5.80;;;17.90;97.80;;;;;;5095189;28;20039;-49
2023/05/20 11:44:13;;;;;;;12.60;6.28;;;17.80;98.10;;;;;;5093676;28;20024;-51
2023/05/20 11:46:42;;;;;;;7.38;5.10;;;17.80;98.70;;;;;;5093331;28;20149;-50
2023/05/20 11:49:08;;;;;;;6.13;5.28;;;17.90;98.50;;;;;;5090281;28;20051;-51
2023/05/20 11:51:34;;;;;;;10.43;5.43;;;17.90;98.50;;;;;;5091273;28;20552;-50
2023/05/20 11:54:05;;;;;;;8.88;5.75;;;18.00;98.20;;;;;;5106686;28;20047;-51
2023/05/20 11:56:33;;;;;;;8.43;5.60;;;18.30;98.10;;;;;;5093095;28;20386;-50
2023/05/20 11:59:06;;;;;;;11.07;6.70;;;18.30;97.90;;;;;;5090720;28;20063;-51
2023/05/20 12:01:41;;;;;;;10.18;5.00;;;18.30;97.80;;;;;;5094248;28;20031;-52
2023/05/20 12:04:08;;;;;;;9.80;6.28;;;18.30;97.70;;;;;;5107269;27;20481;-53
2023/05/20 12:06:33;;;;;;;11.38;5.30;;;18.30;97.50;;;;;;5099065;28;20039;-53
2023/05/20 12:09:05;;;;;;;7.55;5.05;;;18.20;97.30;;;;;;5095647;28;20081;-51
2023/05/20 12:11:34;;;;;;;7.97;5.20;;;18.10;97.80;;;;;;5102615;28;20099;-52
2023/05/20 12:14:01;;;;;;;13.25;6.22;;;17.90;97.90;;;;;;5103448;27;20035;-50
2023/05/20 12:16:27;;;;;;;7.20;5.00;;;17.80;98.00;;;;;;5110499;28;20475;-52
2023/05/20 12:18:52;;;;;;;11.38;6.38;;;17.80;98.10;;;;;;5089978;28;20099;-51
2023/05/20 12:21:18;;;;;;;7.93;5.15;;;18.10;98.60;;;;;;5091994;28;20099;-52
2023/05/20 12:23:43;;;;;;;8.15;5.35;;;18.30;97.80;;;;;;5102013;28;20448;-54
2023/05/20 12:26:09;;;;;;;9.68;5.93;;;18.20;97.80;;;;;;5101142;28;20027;-52
2023/05/20 12:28:35;;;;;;;9.93;6.43;;;18.00;97.90;;;;;;5109939;28;20465;-50
2023/05/20 12:31:00;;;;;;;12.13;8.07;;;18.00;98.20;;;;;;5109744;28;20028;-52
2023/05/20 12:33:26;;;;;;;10.20;6.30;;;17.90;98.20;;;;;;5109503;28;20096;-53
2023/05/20 12:35:52;;;;;;;11.25;6.32;;;17.80;99.00;;;;;;5110147;28;20415;-50
2023/05/20 12:38:17;;;;;;;10.73;6.93;;;18.00;98.40;;;;;;5109811;28;20032;-51
2023/05/20 12:40:43;;;;;;;8.35;6.63;;;18.00;98.60;;;;;;5109737;28;20054;-50
2023/05/20 12:43:08;;;;;;;9.85;6.88;;;18.10;98.20;;;;;;5109223;28;20019;-52